sensor_id;sensor_type;location;lat;lon;timestamp;pressure;altitude;pressure_sealevel;temperature;humidity
76352;BME280;65179;47.786;19.138;2023-05-07T00:00:05;100333.91;;;15.93;80.29
76352;BME280;65179;47.786;19.138;2023-05-07T00:02:34;100332.16;;;15.87;80.53
76352;BME280;65179;47.786;19.138;2023-05-07T00:04:59;100330.84;;;15.90;80.31
76352;BME280;65179;47.786;19.138;2023-05-07T00:07:25;100323.25;;;15.97;80.19
76352;BME280;65179;47.786;19.138;2023-05-07T00:09:50;100334.47;;;15.96;80.33
76352;BME280;65179;47.786;19.138;2023-05-07T00:12:16;100332.25;;;15.92;80.88
76352;BME280;65179;47.786;19.138;2023-05-07T00:14:41;100338.56;;;15.93;80.95
76352;BME280;65179;47.786;19.138;2023-05-07T00:17:07;100335.81;;;15.93;80.57
76352;BME280;65179;47.786;19.138;2023-05-07T00:19:32;100337.25;;;16.01;80.64
76352;BME280;65179;47.786;19.138;2023-05-07T00:21:58;100334.47;;;15.96;80.50
76352;BME280;65179;47.786;19.138;2023-05-07T00:24:23;100339.81;;;15.85;80.88
76352;BME280;65179;47.786;19.138;2023-05-07T00:26:49;100338.69;;;15.81;80.94
76352;BME280;65179;47.786;19.138;2023-05-07T00:29:15;100339.59;;;15.87;81.22
76352;BME280;65179;47.786;19.138;2023-05-07T00:31:40;100340.72;;;15.91;80.91
76352;BME280;65179;47.786;19.138;2023-05-07T00:34:06;100340.16;;;15.89;80.80
76352;BME280;65179;47.786;19.138;2023-05-07T00:36:31;100340.16;;;15.89;80.85
76352;BME280;65179;47.786;19.138;2023-05-07T00:38:59;100340.47;;;15.92;80.96
76352;BME280;65179;47.786;19.138;2023-05-07T00:41:25;100329.19;;;15.89;81.14
76352;BME280;65179;47.786;19.138;2023-05-07T00:43:51;100341.78;;;15.90;81.05
76352;BME280;65179;47.786;19.138;2023-05-07T00:46:17;100341.13;;;15.78;81.24
76352;BME280;65179;47.786;19.138;2023-05-07T00:48:45;100336.91;;;15.70;81.49
76352;BME280;65179;47.786;19.138;2023-05-07T00:51:10;100342.53;;;15.80;81.49
76352;BME280;65179;47.786;19.138;2023-05-07T00:53:36;100333.47;;;15.80;81.21
76352;BME280;65179;47.786;19.138;2023-05-07T00:56:02;100340.66;;;15.86;81.09
76352;BME280;65179;47.786;19.138;2023-05-07T00:58:27;100339.31;;;15.88;80.92
76352;BME280;65179;47.786;19.138;2023-05-07T01:00:53;100340.00;;;15.79;81.48
76352;BME280;65179;47.786;19.138;2023-05-07T01:03:18;100336.66;;;15.72;81.74
76352;BME280;65179;47.786;19.138;2023-05-07T01:05:46;100349.53;;;15.71;81.57
76352;BME280;65179;47.786;19.138;2023-05-07T01:08:13;100343.13;;;15.66;81.87
76352;BME280;65179;47.786;19.138;2023-05-07T01:10:40;100343.41;;;15.64;82.17
76352;BME280;65179;47.786;19.138;2023-05-07T01:13:09;100348.19;;;15.74;81.81
76352;BME280;65179;47.786;19.138;2023-05-07T01:15:35;100341.69;;;15.80;81.51
76352;BME280;65179;47.786;19.138;2023-05-07T01:18:01;100344.34;;;15.75;81.67
76352;BME280;65179;47.786;19.138;2023-05-07T01:20:27;100342.19;;;15.77;81.56
76352;BME280;65179;47.786;19.138;2023-05-07T01:22:53;100342.19;;;15.77;82.00
76352;BME280;65179;47.786;19.138;2023-05-07T01:25:19;100343.66;;;15.84;81.15
76352;BME280;65179;47.786;19.138;2023-05-07T01:27:44;100352.53;;;15.70;81.67
76352;BME280;65179;47.786;19.138;2023-05-07T01:30:11;100355.75;;;15.67;81.79
76352;BME280;65179;47.786;19.138;2023-05-07T01:32:38;100357.59;;;15.61;82.22
76352;BME280;65179;47.786;19.138;2023-05-07T01:35:07;100352.91;;;15.78;81.26
76352;BME280;65179;47.786;19.138;2023-05-07T01:37:35;100357.84;;;15.81;81.18
76352;BME280;65179;47.786;19.138;2023-05-07T01:40:01;100348.22;;;15.79;81.29
76352;BME280;65179;47.786;19.138;2023-05-07T01:42:28;100355.94;;;15.82;81.14
76352;BME280;65179;47.786;19.138;2023-05-07T01:44:54;100345.50;;;15.79;81.13
76352;BME280;65179;47.786;19.138;2023-05-07T01:47:20;100352.56;;;15.75;81.04
76352;BME280;65179;47.786;19.138;2023-05-07T01:49:46;100346.41;;;15.63;81.37
76352;BME280;65179;47.786;19.138;2023-05-07T01:52:12;100342.91;;;15.67;81.54
76352;BME280;65179;47.786;19.138;2023-05-07T01:54:38;100334.91;;;15.66;81.38
76352;BME280;65179;47.786;19.138;2023-05-07T01:57:04;100333.94;;;15.72;80.89
76352;BME280;65179;47.786;19.138;2023-05-07T01:59:29;100343.72;;;15.68;81.05
76352;BME280;65179;47.786;19.138;2023-05-07T02:01:55;100338.69;;;15.60;81.44
76352;BME280;65179;47.786;19.138;2023-05-07T02:04:20;100344.09;;;15.55;81.75
76352;BME280;65179;47.786;19.138;2023-05-07T02:06:46;100336.28;;;15.63;81.34
76352;BME280;65179;47.786;19.138;2023-05-07T02:09:12;100340.75;;;15.53;81.65
76352;BME280;65179;47.786;19.138;2023-05-07T02:11:40;100339.63;;;15.49;81.82
76352;BME280;65179;47.786;19.138;2023-05-07T02:14:05;100336.47;;;15.57;81.56
76352;BME280;65179;47.786;19.138;2023-05-07T02:16:31;100335.13;;;15.43;82.09
76352;BME280;65179;47.786;19.138;2023-05-07T02:18:56;100336.00;;;15.43;82.16
76352;BME280;65179;47.786;19.138;2023-05-07T02:21:23;100343.34;;;15.43;81.87
76352;BME280;65179;47.786;19.138;2023-05-07T02:23:48;100335.13;;;15.43;81.40
76352;BME280;65179;47.786;19.138;2023-05-07T02:26:14;100333.69;;;15.35;81.43
76352;BME280;65179;47.786;19.138;2023-05-07T02:28:39;100336.22;;;15.42;81.32
76352;BME280;65179;47.786;19.138;2023-05-07T02:31:05;100328.13;;;15.30;82.07
76352;BME280;65179;47.786;19.138;2023-05-07T02:33:31;100330.09;;;15.35;81.96
76352;BME280;65179;47.786;19.138;2023-05-07T02:35:56;100330.38;;;15.33;82.10
76352;BME280;65179;47.786;19.138;2023-05-07T02:38:22;100325.13;;;15.32;82.24
76352;BME280;65179;47.786;19.138;2023-05-07T02:40:48;100323.53;;;15.36;82.12
76352;BME280;65179;47.786;19.138;2023-05-07T02:43:13;100331.94;;;15.29;82.55
76352;BME280;65179;47.786;19.138;2023-05-07T02:45:39;100327.03;;;15.31;82.42
76352;BME280;65179;47.786;19.138;2023-05-07T02:48:04;100326.78;;;15.33;82.55
76352;BME280;65179;47.786;19.138;2023-05-07T02:50:31;100330.38;;;15.16;83.29
76352;BME280;65179;47.786;19.138;2023-05-07T02:52:58;100331.13;;;15.29;82.93
76352;BME280;65179;47.786;19.138;2023-05-07T02:55:23;100331.16;;;15.34;82.83
76352;BME280;65179;47.786;19.138;2023-05-07T02:57:48;100332.50;;;15.31;83.02
76352;BME280;65179;47.786;19.138;2023-05-07T03:00:16;100327.84;;;15.32;82.93
76352;BME280;65179;47.786;19.138;2023-05-07T03:02:42;100335.00;;;15.33;82.85
76352;BME280;65179;47.786;19.138;2023-05-07T03:05:07;100328.37;;;15.29;83.10
76352;BME280;65179;47.786;19.138;2023-05-07T03:07:34;100328.87;;;15.26;83.40
76352;BME280;65179;47.786;19.138;2023-05-07T03:10:00;100331.87;;;15.24;83.48
76352;BME280;65179;47.786;19.138;2023-05-07T03:12:25;100334.84;;;15.23;83.44
76352;BME280;65179;47.786;19.138;2023-05-07T03:14:51;100338.66;;;15.22;83.40
76352;BME280;65179;47.786;19.138;2023-05-07T03:17:16;100334.78;;;15.17;83.57
76352;BME280;65179;47.786;19.138;2023-05-07T03:19:42;100345.22;;;15.20;83.37
76352;BME280;65179;47.786;19.138;2023-05-07T03:22:07;100340.66;;;15.09;83.87
76352;BME280;65179;47.786;19.138;2023-05-07T03:24:32;100344.81;;;15.12;83.89
76352;BME280;65179;47.786;19.138;2023-05-07T03:26:58;100353.94;;;15.17;83.75
76352;BME280;65179;47.786;19.138;2023-05-07T03:29:23;100355.53;;;15.13;83.92
76352;BME280;65179;47.786;19.138;2023-05-07T03:31:49;100353.34;;;15.15;83.82
76352;BME280;65179;47.786;19.138;2023-05-07T03:34:14;100352.25;;;15.16;83.83
76352;BME280;65179;47.786;19.138;2023-05-07T03:36:40;100353.41;;;15.20;83.71
76352;BME280;65179;47.786;19.138;2023-05-07T03:39:05;100363.88;;;15.24;83.64
76352;BME280;65179;47.786;19.138;2023-05-07T03:41:32;100364.72;;;15.24;83.68
76352;BME280;65179;47.786;19.138;2023-05-07T03:43:57;100357.56;;;15.23;83.62
76352;BME280;65179;47.786;19.138;2023-05-07T03:46:23;100355.25;;;15.15;84.03
76352;BME280;65179;47.786;19.138;2023-05-07T03:48:51;100340.16;;;15.12;84.04
76352;BME280;65179;47.786;19.138;2023-05-07T03:51:16;100349.63;;;15.22;83.62
76352;BME280;65179;47.786;19.138;2023-05-07T03:53:42;100349.69;;;15.27;83.51
76352;BME280;65179;47.786;19.138;2023-05-07T03:56:07;100351.91;;;15.30;83.47
76352;BME280;65179;47.786;19.138;2023-05-07T03:58:32;100356.72;;;15.23;83.67
76352;BME280;65179;47.786;19.138;2023-05-07T04:00:58;100352.94;;;15.24;83.57
76352;BME280;65179;47.786;19.138;2023-05-07T04:03:24;100357.56;;;15.23;83.77
76352;BME280;65179;47.786;19.138;2023-05-07T04:05:49;100361.03;;;15.18;83.82
76352;BME280;65179;47.786;19.138;2023-05-07T04:08:15;100368.44;;;15.18;83.80
76352;BME280;65179;47.786;19.138;2023-05-07T04:10:40;100373.47;;;15.09;84.11
76352;BME280;65179;47.786;19.138;2023-05-07T04:13:06;100366.06;;;15.05;84.25
76352;BME280;65179;47.786;19.138;2023-05-07T04:15:31;100371.34;;;15.11;84.05
76352;BME280;65179;47.786;19.138;2023-05-07T04:17:56;100362.53;;;15.09;84.00
76352;BME280;65179;47.786;19.138;2023-05-07T04:20:23;100359.22;;;15.07;83.99
76352;BME280;65179;47.786;19.138;2023-05-07T04:22:48;100371.34;;;15.11;83.65
76352;BME280;65179;47.786;19.138;2023-05-07T04:25:15;100367.88;;;14.99;84.36
76352;BME280;65179;47.786;19.138;2023-05-07T04:27:41;100368.53;;;15.06;84.10
76352;BME280;65179;47.786;19.138;2023-05-07T04:30:07;100359.81;;;15.09;84.02
76352;BME280;65179;47.786;19.138;2023-05-07T04:32:32;100357.91;;;15.10;84.03
76352;BME280;65179;47.786;19.138;2023-05-07T04:34:58;100365.63;;;15.13;83.82
76352;BME280;65179;47.786;19.138;2023-05-07T04:37:24;100375.31;;;15.20;83.42
76352;BME280;65179;47.786;19.138;2023-05-07T04:39:50;100377.81;;;15.22;83.31
76352;BME280;65179;47.786;19.138;2023-05-07T04:42:16;100376.00;;;15.11;83.81
76352;BME280;65179;47.786;19.138;2023-05-07T04:44:43;100367.03;;;15.15;83.69
76352;BME280;65179;47.786;19.138;2023-05-07T04:47:09;100378.47;;;15.12;84.25
76352;BME280;65179;47.786;19.138;2023-05-07T04:49:35;100388.25;;;15.08;84.49
76352;BME280;65179;47.786;19.138;2023-05-07T04:52:00;100384.19;;;15.11;84.25
76352;BME280;65179;47.786;19.138;2023-05-07T04:54:26;100385.63;;;15.13;84.42
76352;BME280;65179;47.786;19.138;2023-05-07T04:56:51;100387.56;;;15.35;83.85
76352;BME280;65179;47.786;19.138;2023-05-07T04:59:17;100386.09;;;15.44;83.59
76352;BME280;65179;47.786;19.138;2023-05-07T05:01:43;100390.47;;;15.45;83.50
76352;BME280;65179;47.786;19.138;2023-05-07T05:04:08;100390.38;;;15.56;82.98
76352;BME280;65179;47.786;19.138;2023-05-07T05:06:34;100393.50;;;15.65;82.84
76352;BME280;65179;47.786;19.138;2023-05-07T05:08:59;100394.22;;;15.77;82.56
76352;BME280;65179;47.786;19.138;2023-05-07T05:11:24;100388.16;;;15.75;82.25
76352;BME280;65179;47.786;19.138;2023-05-07T05:13:50;100390.47;;;15.83;82.07
76352;BME280;65179;47.786;19.138;2023-05-07T05:16:15;100394.97;;;15.94;81.96
76352;BME280;65179;47.786;19.138;2023-05-07T05:18:41;100395.88;;;16.00;81.29
76352;BME280;65179;47.786;19.138;2023-05-07T05:21:06;100403.72;;;15.91;81.35
76352;BME280;65179;47.786;19.138;2023-05-07T05:23:32;100395.53;;;15.96;81.35
76352;BME280;65179;47.786;19.138;2023-05-07T05:25:57;100400.34;;;16.06;81.01
76352;BME280;65179;47.786;19.138;2023-05-07T05:28:23;100400.97;;;16.13;80.98
76352;BME280;65179;47.786;19.138;2023-05-07T05:30:49;100403.97;;;16.11;80.77
76352;BME280;65179;47.786;19.138;2023-05-07T05:33:14;100403.53;;;16.19;80.75
76352;BME280;65179;47.786;19.138;2023-05-07T05:35:40;100403.97;;;16.11;80.53
76352;BME280;65179;47.786;19.138;2023-05-07T05:38:05;100416.00;;;16.10;80.36
76352;BME280;65179;47.786;19.138;2023-05-07T05:40:30;100412.50;;;16.15;80.42
76352;BME280;65179;47.786;19.138;2023-05-07T05:42:56;100409.47;;;16.11;80.45
76352;BME280;65179;47.786;19.138;2023-05-07T05:45:21;100406.19;;;16.14;79.94
76352;BME280;65179;47.786;19.138;2023-05-07T05:47:47;100401.91;;;16.23;79.68
76352;BME280;65179;47.786;19.138;2023-05-07T05:50:12;100404.25;;;16.36;79.22
76352;BME280;65179;47.786;19.138;2023-05-07T05:52:38;100406.16;;;16.36;79.28
76352;BME280;65179;47.786;19.138;2023-05-07T05:55:04;100402.44;;;16.47;78.97
76352;BME280;65179;47.786;19.138;2023-05-07T05:57:29;100408.84;;;16.52;78.86
76352;BME280;65179;47.786;19.138;2023-05-07T05:59:55;100407.75;;;16.53;78.51
76352;BME280;65179;47.786;19.138;2023-05-07T06:02:20;100407.25;;;16.56;78.61
76352;BME280;65179;47.786;19.138;2023-05-07T06:04:45;100401.44;;;16.80;77.92
76352;BME280;65179;47.786;19.138;2023-05-07T06:07:11;100403.69;;;16.88;77.01
76352;BME280;65179;47.786;19.138;2023-05-07T06:09:36;100409.72;;;16.85;76.79
76352;BME280;65179;47.786;19.138;2023-05-07T06:12:02;100402.44;;;17.00;76.77
76352;BME280;65179;47.786;19.138;2023-05-07T06:14:27;100401.75;;;17.20;76.82
76352;BME280;65179;47.786;19.138;2023-05-07T06:16:52;100392.78;;;17.29;75.43
76352;BME280;65179;47.786;19.138;2023-05-07T06:19:18;100391.72;;;17.35;75.39
76352;BME280;65179;47.786;19.138;2023-05-07T06:21:48;100388.69;;;17.32;75.01
76352;BME280;65179;47.786;19.138;2023-05-07T06:24:13;100396.47;;;17.45;74.64
76352;BME280;65179;47.786;19.138;2023-05-07T06:26:39;100393.19;;;17.48;74.36
76352;BME280;65179;47.786;19.138;2023-05-07T06:29:05;100397.66;;;17.54;74.23
76352;BME280;65179;47.786;19.138;2023-05-07T06:31:31;100393.78;;;17.50;73.73
76352;BME280;65179;47.786;19.138;2023-05-07T06:33:57;100388.41;;;17.70;73.77
76352;BME280;65179;47.786;19.138;2023-05-07T06:36:22;100390.69;;;17.93;73.19
76352;BME280;65179;47.786;19.138;2023-05-07T06:38:48;100392.47;;;18.14;72.69
76352;BME280;65179;47.786;19.138;2023-05-07T06:41:13;100401.00;;;18.23;72.00
76352;BME280;65179;47.786;19.138;2023-05-07T06:43:39;100395.50;;;18.18;72.43
76352;BME280;65179;47.786;19.138;2023-05-07T06:46:04;100396.91;;;18.31;72.16
76352;BME280;65179;47.786;19.138;2023-05-07T06:48:30;100400.19;;;18.23;72.75
76352;BME280;65179;47.786;19.138;2023-05-07T06:50:55;100397.97;;;18.19;72.54
76352;BME280;65179;47.786;19.138;2023-05-07T06:53:23;100399.66;;;18.36;71.79
76352;BME280;65179;47.786;19.138;2023-05-07T06:55:49;100402.22;;;18.57;71.50
76352;BME280;65179;47.786;19.138;2023-05-07T06:58:14;100404.16;;;18.62;71.17
76352;BME280;65179;47.786;19.138;2023-05-07T07:00:39;100406.37;;;18.60;71.24
76352;BME280;65179;47.786;19.138;2023-05-07T07:03:06;100409.94;;;18.75;71.32
76352;BME280;65179;47.786;19.138;2023-05-07T07:05:31;100409.16;;;18.85;70.23
76352;BME280;65179;47.786;19.138;2023-05-07T07:07:57;100404.19;;;18.82;69.63
76352;BME280;65179;47.786;19.138;2023-05-07T07:10:23;100406.94;;;18.87;69.46
76352;BME280;65179;47.786;19.138;2023-05-07T07:12:49;100401.72;;;19.11;70.02
76352;BME280;65179;47.786;19.138;2023-05-07T07:15:14;100401.47;;;19.27;68.58
76352;BME280;65179;47.786;19.138;2023-05-07T07:17:40;100406.16;;;19.42;67.78
76352;BME280;65179;47.786;19.138;2023-05-07T07:20:06;100410.00;;;19.46;67.03
76352;BME280;65179;47.786;19.138;2023-05-07T07:22:31;100410.25;;;19.49;66.60
76352;BME280;65179;47.786;19.138;2023-05-07T07:24:57;100404.75;;;19.59;66.71
76352;BME280;65179;47.786;19.138;2023-05-07T07:27:23;100412.38;;;19.78;66.42
76352;BME280;65179;47.786;19.138;2023-05-07T07:29:48;100413.75;;;19.80;66.61
76352;BME280;65179;47.786;19.138;2023-05-07T07:32:14;100415.41;;;19.86;65.59
76352;BME280;65179;47.786;19.138;2023-05-07T07:34:39;100412.94;;;19.85;65.68
76352;BME280;65179;47.786;19.138;2023-05-07T07:37:05;100412.94;;;19.85;65.73
76352;BME280;65179;47.786;19.138;2023-05-07T07:39:34;100417.06;;;19.87;65.05
76352;BME280;65179;47.786;19.138;2023-05-07T07:42:00;100407.38;;;19.95;65.59
76352;BME280;65179;47.786;19.138;2023-05-07T07:44:28;100411.78;;;20.01;64.31
76352;BME280;65179;47.786;19.138;2023-05-07T07:46:53;100404.84;;;20.08;63.32
76352;BME280;65179;47.786;19.138;2023-05-07T07:49:19;100402.34;;;20.22;64.00
76352;BME280;65179;47.786;19.138;2023-05-07T07:51:44;100411.00;;;20.49;63.05
76352;BME280;65179;47.786;19.138;2023-05-07T07:54:09;100412.34;;;20.62;62.11
76352;BME280;65179;47.786;19.138;2023-05-07T07:56:35;100406.00;;;20.95;62.16
76352;BME280;65179;47.786;19.138;2023-05-07T07:59:01;100412.41;;;20.90;59.23
76352;BME280;65179;47.786;19.138;2023-05-07T08:01:27;100416.69;;;21.11;59.82
76352;BME280;65179;47.786;19.138;2023-05-07T08:03:52;100418.56;;;21.16;58.77
76352;BME280;65179;47.786;19.138;2023-05-07T08:06:18;100412.88;;;21.36;59.22
76352;BME280;65179;47.786;19.138;2023-05-07T08:08:43;100418.09;;;21.09;57.94
76352;BME280;65179;47.786;19.138;2023-05-07T08:11:09;100418.22;;;20.89;58.37
76352;BME280;65179;47.786;19.138;2023-05-07T08:13:36;100413.31;;;21.20;56.48
76352;BME280;65179;47.786;19.138;2023-05-07T08:16:01;100418.06;;;21.43;57.54
76352;BME280;65179;47.786;19.138;2023-05-07T08:18:27;100419.78;;;21.67;57.10
76352;BME280;65179;47.786;19.138;2023-05-07T08:20:54;100421.41;;;21.68;55.11
76352;BME280;65179;47.786;19.138;2023-05-07T08:23:20;100414.41;;;21.52;53.81
76352;BME280;65179;47.786;19.138;2023-05-07T08:25:45;100415.69;;;21.31;53.86
76352;BME280;65179;47.786;19.138;2023-05-07T08:28:11;100424.91;;;21.50;55.06
76352;BME280;65179;47.786;19.138;2023-05-07T08:30:36;100416.22;;;21.62;53.15
76352;BME280;65179;47.786;19.138;2023-05-07T08:33:02;100412.12;;;21.83;54.44
76352;BME280;65179;47.786;19.138;2023-05-07T08:35:27;100419.34;;;22.26;53.90
76352;BME280;65179;47.786;19.138;2023-05-07T08:37:53;100418.28;;;22.04;52.58
76352;BME280;65179;47.786;19.138;2023-05-07T08:40:18;100416.44;;;22.18;53.80
76352;BME280;65179;47.786;19.138;2023-05-07T08:42:44;100411.25;;;22.53;52.24
76352;BME280;65179;47.786;19.138;2023-05-07T08:45:11;100417.38;;;22.50;52.23
76352;BME280;65179;47.786;19.138;2023-05-07T08:47:56;100420.88;;;22.80;52.54
76352;BME280;65179;47.786;19.138;2023-05-07T08:50:23;100413.37;;;22.99;50.92
76352;BME280;65179;47.786;19.138;2023-05-07T08:52:49;100414.84;;;23.10;50.42
76352;BME280;65179;47.786;19.138;2023-05-07T08:55:15;100416.06;;;23.04;50.23
76352;BME280;65179;47.786;19.138;2023-05-07T08:57:40;100411.75;;;22.60;49.03
76352;BME280;65179;47.786;19.138;2023-05-07T09:00:06;100416.87;;;23.04;48.67
76352;BME280;65179;47.786;19.138;2023-05-07T09:02:34;100403.97;;;22.62;47.04
76352;BME280;65179;47.786;19.138;2023-05-07T09:05:00;100411.78;;;22.37;48.00
76352;BME280;65179;47.786;19.138;2023-05-07T09:07:26;100413.03;;;23.19;46.71
76352;BME280;65179;47.786;19.138;2023-05-07T09:09:52;100409.09;;;23.71;44.67
76352;BME280;65179;47.786;19.138;2023-05-07T09:12:20;100403.19;;;24.04;45.28
76352;BME280;65179;47.786;19.138;2023-05-07T09:14:46;100404.50;;;24.21;44.73
76352;BME280;65179;47.786;19.138;2023-05-07T09:17:12;100401.00;;;24.42;45.47
76352;BME280;65179;47.786;19.138;2023-05-07T09:19:37;100402.09;;;24.55;44.04
76352;BME280;65179;47.786;19.138;2023-05-07T09:22:04;100398.38;;;24.59;45.70
76352;BME280;65179;47.786;19.138;2023-05-07T09:24:32;100394.09;;;24.40;45.45
76352;BME280;65179;47.786;19.138;2023-05-07T09:27:04;100396.16;;;23.66;45.99
76352;BME280;65179;47.786;19.138;2023-05-07T09:29:30;100391.62;;;23.70;46.03
76352;BME280;65179;47.786;19.138;2023-05-07T09:32:01;100397.81;;;24.22;45.27
76352;BME280;65179;47.786;19.138;2023-05-07T09:34:26;100398.22;;;24.29;44.38
76352;BME280;65179;47.786;19.138;2023-05-07T09:36:53;100394.72;;;24.86;44.00
76352;BME280;65179;47.786;19.138;2023-05-07T09:39:19;100396.63;;;25.43;43.66
76352;BME280;65179;47.786;19.138;2023-05-07T09:41:46;100392.31;;;25.37;43.02
76352;BME280;65179;47.786;19.138;2023-05-07T09:44:12;100400.25;;;25.75;42.58
76352;BME280;65179;47.786;19.138;2023-05-07T09:46:42;100403.28;;;25.65;40.61
76352;BME280;65179;47.786;19.138;2023-05-07T09:49:12;100400.81;;;26.33;40.79
76352;BME280;65179;47.786;19.138;2023-05-07T09:51:47;100411.66;;;26.52;40.64
76352;BME280;65179;47.786;19.138;2023-05-07T09:54:14;100401.88;;;25.76;39.79
76352;BME280;65179;47.786;19.138;2023-05-07T09:56:40;100399.28;;;26.27;39.93
76352;BME280;65179;47.786;19.138;2023-05-07T09:59:07;100408.53;;;26.53;38.14
76352;BME280;65179;47.786;19.138;2023-05-07T10:01:36;100408.19;;;26.38;39.14
76352;BME280;65179;47.786;19.138;2023-05-07T10:04:02;100409.06;;;24.79;43.11
76352;BME280;65179;47.786;19.138;2023-05-07T10:06:30;100414.09;;;24.15;44.30
76352;BME280;65179;47.786;19.138;2023-05-07T10:08:55;100404.16;;;23.68;45.23
76352;BME280;65179;47.786;19.138;2023-05-07T10:11:21;100410.31;;;23.65;45.95
76352;BME280;65179;47.786;19.138;2023-05-07T10:13:47;100418.41;;;23.29;45.57
76352;BME280;65179;47.786;19.138;2023-05-07T10:16:13;100416.63;;;23.38;46.06
76352;BME280;65179;47.786;19.138;2023-05-07T10:18:40;100419.25;;;23.11;45.85
76352;BME280;65179;47.786;19.138;2023-05-07T10:21:35;100409.34;;;22.91;45.86
76352;BME280;65179;47.786;19.138;2023-05-07T10:24:08;100410.50;;;23.55;44.78
76352;BME280;65179;47.786;19.138;2023-05-07T10:26:40;100411.03;;;23.70;44.57
76352;BME280;65179;47.786;19.138;2023-05-07T10:29:17;100407.91;;;24.18;43.85
76352;BME280;65179;47.786;19.138;2023-05-07T10:34:50;100403.31;;;23.54;45.75
76352;BME280;65179;47.786;19.138;2023-05-07T10:37:18;100398.03;;;24.12;44.57
76352;BME280;65179;47.786;19.138;2023-05-07T10:39:44;100398.84;;;23.71;45.98
76352;BME280;65179;47.786;19.138;2023-05-07T10:42:11;100389.31;;;24.54;44.16
76352;BME280;65179;47.786;19.138;2023-05-07T10:44:37;100393.59;;;24.87;43.63
76352;BME280;65179;47.786;19.138;2023-05-07T10:47:10;100388.03;;;25.31;42.35
76352;BME280;65179;47.786;19.138;2023-05-07T10:54:38;100379.22;;;26.08;41.74
76352;BME280;65179;47.786;19.138;2023-05-07T10:57:36;100381.31;;;26.42;39.71
76352;BME280;65179;47.786;19.138;2023-05-07T11:05:27;100384.88;;;25.24;42.90
76352;BME280;65179;47.786;19.138;2023-05-07T11:08:00;100386.47;;;24.95;43.90
76352;BME280;65179;47.786;19.138;2023-05-07T11:10:52;100391.12;;;24.72;44.79
76352;BME280;65179;47.786;19.138;2023-05-07T11:16:04;100390.88;;;24.96;43.74
76352;BME280;65179;47.786;19.138;2023-05-07T11:18:49;100388.38;;;25.08;43.94
76352;BME280;65179;47.786;19.138;2023-05-07T11:21:35;100380.44;;;25.23;42.99
76352;BME280;65179;47.786;19.138;2023-05-07T11:24:02;100383.53;;;25.22;42.21
76352;BME280;65179;47.786;19.138;2023-05-07T11:26:30;100382.59;;;25.04;43.70
76352;BME280;65179;47.786;19.138;2023-05-07T11:28:56;100381.62;;;24.87;44.29
76352;BME280;65179;47.786;19.138;2023-05-07T11:31:27;100384.25;;;25.05;44.12
76352;BME280;65179;47.786;19.138;2023-05-07T11:33:54;100385.34;;;25.71;42.22
76352;BME280;65179;47.786;19.138;2023-05-07T11:36:22;100384.19;;;26.11;41.55
76352;BME280;65179;47.786;19.138;2023-05-07T11:38:47;100399.69;;;26.51;40.05
76352;BME280;65179;47.786;19.138;2023-05-07T11:41:13;100383.81;;;25.65;40.95
76352;BME280;65179;47.786;19.138;2023-05-07T11:43:53;100383.91;;;26.38;39.20
76352;BME280;65179;47.786;19.138;2023-05-07T11:46:20;100379.81;;;25.48;39.88
76352;BME280;65179;47.786;19.138;2023-05-07T11:48:45;100366.44;;;25.90;40.20
76352;BME280;65179;47.786;19.138;2023-05-07T11:51:10;100378.25;;;26.04;38.34
76352;BME280;65179;47.786;19.138;2023-05-07T11:53:41;100370.91;;;25.69;38.73
76352;BME280;65179;47.786;19.138;2023-05-07T11:56:07;100365.25;;;25.91;39.33
76352;BME280;65179;47.786;19.138;2023-05-07T11:58:33;100356.59;;;26.57;38.68
76352;BME280;65179;47.786;19.138;2023-05-07T12:00:58;100368.87;;;26.56;38.91
76352;BME280;65179;47.786;19.138;2023-05-07T12:03:24;100370.47;;;26.31;38.63
76352;BME280;65179;47.786;19.138;2023-05-07T12:05:51;100362.84;;;25.98;39.10
76352;BME280;65179;47.786;19.138;2023-05-07T12:08:18;100371.41;;;26.10;39.62
76352;BME280;65179;47.786;19.138;2023-05-07T12:10:45;100366.22;;;26.34;39.16
76352;BME280;65179;47.786;19.138;2023-05-07T12:13:18;100362.97;;;26.58;38.73
76352;BME280;65179;47.786;19.138;2023-05-07T12:15:44;100368.78;;;26.78;37.39
76352;BME280;65179;47.786;19.138;2023-05-07T12:18:11;100367.78;;;26.74;37.69
76352;BME280;65179;47.786;19.138;2023-05-07T12:20:37;100363.28;;;26.39;38.19
76352;BME280;65179;47.786;19.138;2023-05-07T12:23:03;100359.06;;;26.67;38.09
76352;BME280;65179;47.786;19.138;2023-05-07T12:25:36;100352.31;;;26.51;37.60
76352;BME280;65179;47.786;19.138;2023-05-07T12:28:02;100355.94;;;26.69;38.30
76352;BME280;65179;47.786;19.138;2023-05-07T12:30:31;100366.44;;;26.63;37.83
76352;BME280;65179;47.786;19.138;2023-05-07T12:32:57;100358.22;;;26.50;38.24
76352;BME280;65179;47.786;19.138;2023-05-07T12:35:36;100356.44;;;26.71;38.29
76352;BME280;65179;47.786;19.138;2023-05-07T12:38:02;100359.88;;;26.68;36.86
76352;BME280;65179;47.786;19.138;2023-05-07T12:40:41;100354.75;;;26.27;37.40
76352;BME280;65179;47.786;19.138;2023-05-07T12:43:07;100347.72;;;26.38;37.08
76352;BME280;65179;47.786;19.138;2023-05-07T12:45:37;100352.94;;;26.14;37.23
76352;BME280;65179;47.786;19.138;2023-05-07T12:48:03;100347.66;;;25.65;37.86
76352;BME280;65179;47.786;19.138;2023-05-07T12:50:32;100345.91;;;26.25;37.85
76352;BME280;65179;47.786;19.138;2023-05-07T12:52:59;100345.66;;;26.04;37.14